Wetterdaten: Woche 16.05.22 - 22.05.22 (KW20)
Datum Zeit Temp. Aussen Temp. o. S. Temp +5cm Feuchte Auss Luftdruck Regen Sonnenschein Regendauer Solar Windben Empfang
16.05.2022 00:00 17,3 C 16,0 C 12,8 C 74 % 1015,3 hPa 0,0 l/m 0,00 h 0,00 h 0 W/m 1,3 km/h (1 Bft) 98,66 %
16.05.2022 01:00 16,6 C 15,7 C 12,3 C 75 % 1014,8 hPa 0,0 l/m 0,00 h 0,00 h 0 W/m 2,8 km/h (1 Bft) 97,79 %
16.05.2022 02:00 16,7 C 15,8 C 12,5 C 72 % 1014,5 hPa 0,0 l/m 0,00 h 0,00 h 0 W/m 2,1 km/h (1 Bft) 96,65 %
16.05.2022 03:00 16,3 C 15,4 C 12,0 C 73 % 1014,1 hPa 0,0 l/m 0,00 h 0,00 h 0 W/m 2,6 km/h (1 Bft) 98,44 %
16.05.2022 04:00 16,3 C 15,6 C 12,2 C 73 % 1013,6 hPa 0,0 l/m 0,00 h 0,00 h 0 W/m 3,4 km/h (1 Bft) 98,43 %
16.05.2022 05:00 16,2 C 15,5 C 12,2 C 73 % 1013,4 hPa 0,0 l/m 0,00 h 0,00 h 6 W/m 6,2 km/h (2 Bft) 96,44 %
16.05.2022 06:00 16,3 C 15,6 C 12,2 C 74 % 1013,3 hPa 0,0 l/m 0,00 h 0,00 h 21 W/m 6,7 km/h (2 Bft) 98,01 %
16.05.2022 07:00 17,0 C 16,7 C 12,9 C 74 % 1013,4 hPa 0,0 l/m 0,00 h 0,00 h 80 W/m 8,7 km/h (2 Bft) 97,94 %
16.05.2022 08:00 18,2 C 17,8 C 14,1 C 71 % 1013,8 hPa 0,0 l/m 0,07 h 0,00 h 121 W/m 11,1 km/h (2 Bft) 97,94 %
16.05.2022 09:00 18,2 C 17,3 C 13,5 C 74 % 1014,7 hPa 0,0 l/m 0,00 h 0,13 h 77 W/m 6,7 km/h (2 Bft) 96,56 %
16.05.2022 10:00 18,3 C 18,3 C 14,4 C 81 % 1014,8 hPa 0,0 l/m 0,13 h 0,03 h 250 W/m 8,5 km/h (2 Bft) 98,36 %
16.05.2022 11:00 21,2 C 22,5 C 18,2 C 72 % 1015,0 hPa 0,0 l/m 0,70 h 0,00 h 529 W/m 11,8 km/h (2 Bft) 98,08 %
16.05.2022 12:00 25,0 C 27,2 C 25,3 C 64 % 1015,0 hPa 0,0 l/m 0,93 h 0,00 h 719 W/m 9,8 km/h (2 Bft) 98,01 %
16.05.2022 13:00 26,4 C 26,9 C 24,2 C 60 % 1014,9 hPa 0,0 l/m 0,53 h 0,00 h 451 W/m 14,5 km/h (3 Bft) 96,30 %
16.05.2022 14:00 25,8 C 26,1 C 21,9 C 64 % 1015,0 hPa 0,0 l/m 0,43 h 0,00 h 463 W/m 19,3 km/h (3 Bft) 99,36 %
16.05.2022 15:00 25,0 C 25,8 C 21,3 C 68 % 1015,7 hPa 0,0 l/m 0,75 h 0,00 h 582 W/m 21,0 km/h (4 Bft) 97,03 %
16.05.2022 16:00 23,1 C 22,7 C 19,1 C 70 % 1016,8 hPa 0,0 l/m 0,50 h 0,00 h 213 W/m 22,9 km/h (4 Bft) 99,02 %
16.05.2022 17:00 21,6 C 21,1 C 17,7 C 74 % 1017,3 hPa 0,0 l/m 0,00 h 0,07 h 109 W/m 13,5 km/h (3 Bft) 98,93 %
16.05.2022 18:00 21,8 C 21,7 C 17,8 C 73 % 1017,6 hPa 0,0 l/m 0,27 h 0,00 h 180 W/m 12,2 km/h (2 Bft) 96,89 %
16.05.2022 19:00 22,0 C 21,7 C 17,7 C 70 % 1018,0 hPa 0,0 l/m 0,60 h 0,00 h 147 W/m 9,9 km/h (2 Bft) 97,26 %
16.05.2022 20:00 21,7 C 20,9 C 17,2 C 68 % 1018,4 hPa 0,0 l/m 0,07 h 0,00 h 38 W/m 8,5 km/h (2 Bft) 98,90 %
16.05.2022 21:00 20,6 C 18,8 C 14,7 C 72 % 1019,0 hPa 0,0 l/m 0,00 h 0,00 h 8 W/m 1,7 km/h (1 Bft) 96,18 %
16.05.2022 22:00 18,6 C 16,5 C 12,7 C 80 % 1019,4 hPa 0,0 l/m 0,00 h 0,00 h 0 W/m 0,0 km/h (0 Bft) 98,22 %
16.05.2022 23:00 17,1 C 15,5 C 11,9 C 83 % 1019,9 hPa 0,0 l/m 0,00 h 0,00 h 0 W/m 0,1 km/h (0 Bft) 98,22 %
17.05.2022 00:00 16,1 C 14,7 C 11,3 C 86 % 1020,3 hPa 0,0 l/m 0,00 h 0,00 h 0 W/m 0,0 km/h (0 Bft) 95,86 %
17.05.2022 01:00 15,3 C 14,0 C 10,8 C 88 % 1020,5 hPa 0,0 l/m 0,00 h 0,00 h 0 W/m 0,0 km/h (0 Bft) 98,22 %
17.05.2022 02:00 14,5 C 13,2 C 10,2 C 90 % 1020,5 hPa 0,0 l/m 0,00 h 0,00 h 0 W/m 0,1 km/h (0 Bft) 97,30 %
17.05.2022 03:00 13,8 C 12,8 C 9,4 C 92 % 1020,4 hPa 0,0 l/m 0,00 h 0,00 h 0 W/m 0,2 km/h (0 Bft) 99,00 %
17.05.2022 04:00 13,4 C 12,2 C 9,3 C 93 % 1020,4 hPa 0,0 l/m 0,00 h 0,00 h 0 W/m 0,0 km/h (0 Bft) 93,34 %
17.05.2022 05:00 12,9 C 12,1 C 9,0 C 93 % 1020,7 hPa 0,0 l/m 0,00 h 0,00 h 8 W/m 0,0 km/h (0 Bft) 98,86 %
17.05.2022 06:00 13,3 C 13,3 C 10,3 C 94 % 1020,9 hPa 0,0 l/m 0,00 h 0,00 h 24 W/m 2,0 km/h (1 Bft) 96,44 %
17.05.2022 07:00 14,1 C 14,3 C 11,0 C 93 % 1021,2 hPa 0,0 l/m 0,00 h 0,00 h 79 W/m 4,2 km/h (1 Bft) 96,51 %
17.05.2022 08:00 15,4 C 15,9 C 12,3 C 90 % 1021,4 hPa 0,0 l/m 0,00 h 0,00 h 146 W/m 5,4 km/h (1 Bft) 98,59 %
17.05.2022 09:00 17,3 C 18,1 C 14,3 C 85 % 1021,6 hPa 0,0 l/m 0,20 h 0,00 h 215 W/m 6,2 km/h (2 Bft) 97,18 %
17.05.2022 10:00 19,5 C 20,1 C 16,1 C 79 % 1021,9 hPa 0,0 l/m 0,13 h 0,00 h 283 W/m 6,2 km/h (2 Bft) 96,51 %
17.05.2022 11:00 21,4 C 21,9 C 17,7 C 72 % 1021,8 hPa 0,0 l/m 0,43 h 0,00 h 323 W/m 5,3 km/h (1 Bft) 99,29 %
17.05.2022 12:00 21,9 C 22,4 C 17,9 C 69 % 1021,6 hPa 0,0 l/m 0,00 h 0,00 h 309 W/m 6,0 km/h (2 Bft) 97,01 %
17.05.2022 13:00 22,7 C 23,9 C 18,9 C 67 % 1021,1 hPa 0,0 l/m 0,43 h 0,00 h 383 W/m 6,6 km/h (2 Bft) 97,09 %
17.05.2022 14:00 24,8 C 27,4 C 21,1 C 62 % 1020,6 hPa 0,0 l/m 1,00 h 0,00 h 720 W/m 9,9 km/h (2 Bft) 98,22 %
17.05.2022 15:00 26,3 C 27,8 C 21,5 C 54 % 1020,0 hPa 0,0 l/m 1,00 h 0,00 h 713 W/m 12,2 km/h (3 Bft) 96,99 %
17.05.2022 16:00 26,4 C 29,6 C 21,6 C 55 % 1019,4 hPa 0,0 l/m 0,77 h 0,00 h 518 W/m 8,9 km/h (2 Bft) 96,81 %
17.05.2022 17:00 27,2 C 30,0 C 22,2 C 52 % 1019,0 hPa 0,0 l/m 0,73 h 0,00 h 443 W/m 10,3 km/h (2 Bft) 98,29 %
17.05.2022 18:00 26,3 C 26,6 C 21,3 C 56 % 1018,6 hPa 0,0 l/m 0,35 h 0,00 h 204 W/m 8,3 km/h (2 Bft) 98,08 %
17.05.2022 19:00 25,3 C 24,5 C 20,5 C 59 % 1018,4 hPa 0,0 l/m 0,03 h 0,00 h 102 W/m 4,7 km/h (1 Bft) 97,79 %
17.05.2022 20:00 24,5 C 23,5 C 19,6 C 61 % 1018,6 hPa 0,0 l/m 0,00 h 0,00 h 30 W/m 3,7 km/h (1 Bft) 96,31 %
17.05.2022 21:00 23,3 C 22,1 C 18,4 C 64 % 1018,6 hPa 0,0 l/m 0,00 h 0,00 h 9 W/m 4,3 km/h (1 Bft) 99,19 %
17.05.2022 22:00 22,0 C 20,7 C 17,1 C 67 % 1018,9 hPa 0,0 l/m 0,00 h 0,00 h 0 W/m 2,9 km/h (1 Bft) 97,22 %
17.05.2022 23:00 21,0 C 20,0 C 16,2 C 70 % 1019,0 hPa 0,0 l/m 0,00 h 0,00 h 0 W/m 3,3 km/h (1 Bft) 96,51 %
18.05.2022 00:00 20,7 C 19,5 C 16,1 C 72 % 1019,0 hPa 0,0 l/m 0,00 h 0,00 h 0 W/m 6,7 km/h (2 Bft) 95,67 %
18.05.2022 01:00 20,3 C 19,1 C 15,7 C 73 % 1019,1 hPa 0,0 l/m 0,00 h 0,00 h 0 W/m 6,6 km/h (2 Bft) 96,45 %
18.05.2022 02:00 19,4 C 18,2 C 14,8 C 76 % 1019,5 hPa 0,0 l/m 0,00 h 0,00 h 0 W/m 9,0 km/h (2 Bft) 97,65 %
18.05.2022 03:00 18,6 C 17,4 C 14,1 C 78 % 1019,8 hPa 0,0 l/m 0,00 h 0,00 h 0 W/m 7,0 km/h (2 Bft) 98,58 %
18.05.2022 04:00 18,0 C 17,0 C 13,7 C 80 % 1019,9 hPa 0,0 l/m 0,00 h 0,00 h 0 W/m 6,4 km/h (2 Bft) 96,46 %
18.05.2022 05:00 17,7 C 16,7 C 13,3 C 82 % 1019,9 hPa 0,0 l/m 0,00 h 0,00 h 8 W/m 6,0 km/h (2 Bft) 97,44 %
18.05.2022 06:00 17,6 C 16,8 C 13,3 C 83 % 1020,4 hPa 0,0 l/m 0,00 h 0,00 h 21 W/m 7,5 km/h (2 Bft) 99,13 %
18.05.2022 07:00 18,3 C 17,7 C 14,1 C 82 % 1020,8 hPa 0,0 l/m 0,10 h 0,00 h 58 W/m 11,1 km/h (2 Bft) 95,62 %
18.05.2022 08:00 20,5 C 22,7 C 16,3 C 75 % 1021,1 hPa 0,0 l/m 1,00 h 0,00 h 354 W/m 9,5 km/h (2 Bft) 98,96 %
18.05.2022 09:00 23,3 C 27,9 C 22,0 C 68 % 1021,2 hPa 0,0 l/m 1,00 h 0,00 h 530 W/m 10,9 km/h (2 Bft) 97,93 %
18.05.2022 10:00 25,1 C 27,2 C 23,6 C 62 % 1021,3 hPa 0,0 l/m 0,97 h 0,00 h 667 W/m 8,0 km/h (2 Bft) 96,43 %
18.05.2022 11:00 26,3 C 28,1 C 22,5 C 60 % 1021,3 hPa 0,0 l/m 0,97 h 0,00 h 769 W/m 7,4 km/h (2 Bft) 97,81 %
18.05.2022 12:00 28,4 C 30,8 C 30,7 C 56 % 1021,0 hPa 0,0 l/m 1,00 h 0,00 h 841 W/m 7,4 km/h (2 Bft) 98,68 %
18.05.2022 13:00 30,1 C 32,1 C 30,3 C 50 % 1020,5 hPa 0,0 l/m 1,00 h 0,00 h 888 W/m 9,4 km/h (2 Bft) 95,95 %
18.05.2022 14:00 30,7 C 33,0 C 26,3 C 48 % 1020,1 hPa 0,0 l/m 0,95 h 0,00 h 830 W/m 11,1 km/h (2 Bft) 99,43 %
18.05.2022 15:00 30,5 C 31,8 C 25,5 C 48 % 1020,0 hPa 0,0 l/m 0,47 h 0,00 h 516 W/m 8,7 km/h (2 Bft) 94,74 %
18.05.2022 16:00 30,4 C 32,7 C 25,7 C 47 % 1019,6 hPa 0,0 l/m 0,65 h 0,00 h 508 W/m 7,7 km/h (2 Bft) 98,80 %
18.05.2022 17:00 30,3 C 31,3 C 24,9 C 48 % 1019,2 hPa 0,0 l/m 0,40 h 0,00 h 266 W/m 4,3 km/h (1 Bft) 94,96 %
18.05.2022 18:00 29,3 C 28,4 C 23,7 C 52 % 1019,1 hPa 0,0 l/m 0,00 h 0,00 h 127 W/m 2,8 km/h (1 Bft) 96,21 %
18.05.2022 19:00 28,3 C 27,6 C 22,9 C 57 % 1019,0 hPa 0,0 l/m 0,68 h 0,00 h 135 W/m 9,2 km/h (2 Bft) 97,46 %
18.05.2022 20:00 26,6 C 25,7 C 21,5 C 65 % 1019,2 hPa 0,0 l/m 0,50 h 0,00 h 55 W/m 7,6 km/h (2 Bft) 98,01 %
18.05.2022 21:00 25,5 C 24,0 C 19,6 C 69 % 1019,3 hPa 0,0 l/m 0,00 h 0,00 h 8 W/m 3,1 km/h (1 Bft) 97,58 %
18.05.2022 22:00 24,1 C 22,5 C 18,3 C 73 % 1019,1 hPa 0,0 l/m 0,00 h 0,00 h 0 W/m 2,6 km/h (1 Bft) 97,52 %
18.05.2022 23:00 22,6 C 21,0 C 17,0 C 78 % 1019,0 hPa 0,0 l/m 0,00 h 0,00 h 0 W/m 1,8 km/h (1 Bft) 96,87 %
19.05.2022 00:00 21,4 C 20,0 C 16,3 C 82 % 1018,8 hPa 0,0 l/m 0,00 h 0,00 h 0 W/m 0,9 km/h (0 Bft) 97,61 %
19.05.2022 01:00 20,4 C 19,6 C 15,9 C 80 % 1018,4 hPa 0,0 l/m 0,00 h 0,00 h 0 W/m 1,5 km/h (1 Bft) 98,36 %
19.05.2022 02:00 20,2 C 19,1 C 15,3 C 77 % 1018,0 hPa 0,0 l/m 0,00 h 0,00 h 0 W/m 0,9 km/h (0 Bft) 96,23 %
19.05.2022 03:00 20,3 C 19,4 C 16,1 C 75 % 1017,6 hPa 0,0 l/m 0,00 h 0,00 h 0 W/m 6,6 km/h (2 Bft) 97,79 %
19.05.2022 04:00 20,3 C 19,1 C 15,8 C 75 % 1017,5 hPa 0,0 l/m 0,00 h 0,00 h 0 W/m 5,3 km/h (1 Bft) 97,67 %
19.05.2022 05:00 19,7 C 18,9 C 15,3 C 76 % 1017,4 hPa 0,0 l/m 0,00 h 0,00 h 7 W/m 7,1 km/h (2 Bft) 97,62 %
19.05.2022 06:00 19,6 C 19,0 C 15,3 C 76 % 1017,6 hPa 0,0 l/m 0,00 h 0,00 h 36 W/m 6,4 km/h (2 Bft) 96,32 %
19.05.2022 07:00 20,0 C 19,5 C 15,7 C 76 % 1018,7 hPa 0,0 l/m 0,10 h 0,00 h 85 W/m 5,7 km/h (1 Bft) 98,93 %
19.05.2022 08:00 21,6 C 22,8 C 17,5 C 74 % 1018,5 hPa 0,0 l/m 0,83 h 0,00 h 275 W/m 4,6 km/h (1 Bft) 96,94 %
19.05.2022 09:00 23,8 C 26,9 C 21,4 C 67 % 1018,0 hPa 0,0 l/m 0,93 h 0,00 h 499 W/m 8,4 km/h (2 Bft) 98,08 %
19.05.2022 10:00 24,8 C 25,1 C 21,8 C 64 % 1017,5 hPa 0,0 l/m 0,75 h 0,00 h 508 W/m 13,6 km/h (3 Bft) 95,86 %
19.05.2022 11:00 26,5 C 27,3 C 22,6 C 60 % 1017,0 hPa 0,0 l/m 0,97 h 0,00 h 698 W/m 17,7 km/h (3 Bft) 99,38 %
19.05.2022 12:00 28,8 C 29,7 C 29,8 C 55 % 1016,4 hPa 0,0 l/m 1,00 h 0,00 h 867 W/m 20,9 km/h (4 Bft) 98,90 %
19.05.2022 13:00 29,9 C 30,6 C 28,5 C 53 % 1015,9 hPa 0,0 l/m 1,00 h 0,00 h 919 W/m 24,4 km/h (4 Bft) 99,12 %
19.05.2022 14:00 29,7 C 29,4 C 25,7 C 53 % 1015,7 hPa 0,0 l/m 0,58 h 0,00 h 454 W/m 23,1 km/h (4 Bft) 100,00 %
19.05.2022 15:00 19,7 C 17,7 C 14,2 C 86 % 1018,3 hPa 9,8 l/m 0,00 h 0,42 h 105 W/m 26,0 km/h (4 Bft) 99,05 %
19.05.2022 16:00 18,3 C 17,9 C 13,4 C 93 % 1018,6 hPa 0,0 l/m 0,00 h 0,00 h 76 W/m 10,2 km/h (2 Bft) 98,30 %
19.05.2022 17:00 18,6 C 19,2 C 13,8 C 93 % 1019,0 hPa 0,0 l/m 0,27 h 0,00 h 187 W/m 7,5 km/h (2 Bft) 99,63 %
19.05.2022 18:00 21,0 C 25,3 C 17,0 C 86 % 1019,6 hPa 0,0 l/m 0,87 h 0,00 h 413 W/m 11,6 km/h (2 Bft) 96,11 %
19.05.2022 19:00 22,0 C 22,4 C 17,7 C 81 % 1019,7 hPa 0,0 l/m 0,57 h 0,00 h 178 W/m 8,7 km/h (2 Bft) 98,31 %
19.05.2022 20:00 21,4 C 20,6 C 17,0 C 83 % 1019,9 hPa 0,0 l/m 0,00 h 0,00 h 28 W/m 5,5 km/h (1 Bft) 98,65 %
19.05.2022 21:00 20,6 C 19,5 C 16,1 C 85 % 1020,4 hPa 0,0 l/m 0,00 h 0,00 h 6 W/m 4,1 km/h (1 Bft) 96,18 %
19.05.2022 22:00 19,6 C 18,7 C 15,4 C 85 % 1021,0 hPa 0,0 l/m 0,00 h 0,00 h 0 W/m 10,4 km/h (2 Bft) 98,08 %
19.05.2022 23:00 18,6 C 17,7 C 14,3 C 87 % 1021,6 hPa 0,0 l/m 0,00 h 0,00 h 0 W/m 6,0 km/h (2 Bft) 99,29 %
20.05.2022 00:00 17,5 C 16,6 C 13,2 C 87 % 1022,0 hPa 0,0 l/m 0,00 h 0,00 h 0 W/m 11,4 km/h (2 Bft) 95,12 %
20.05.2022 01:00 16,9 C 16,0 C 12,6 C 88 % 1022,1 hPa 0,0 l/m 0,00 h 0,00 h 0 W/m 4,9 km/h (1 Bft) 98,50 %
20.05.2022 02:00 16,0 C 15,0 C 11,8 C 90 % 1022,1 hPa 0,0 l/m 0,00 h 0,00 h 0 W/m 3,6 km/h (1 Bft) 98,79 %
20.05.2022 03:00 15,6 C 14,8 C 11,7 C 91 % 1022,1 hPa 0,0 l/m 0,00 h 0,00 h 0 W/m 0,2 km/h (0 Bft) 94,97 %
20.05.2022 04:00 15,3 C 14,0 C 11,0 C 91 % 1021,6 hPa 0,0 l/m 0,00 h 0,00 h 0 W/m 0,0 km/h (0 Bft) 98,92 %
20.05.2022 05:00 15,0 C 14,0 C 11,0 C 93 % 1021,4 hPa 0,0 l/m 0,00 h 0,00 h 8 W/m 0,0 km/h (0 Bft) 97,51 %
20.05.2022 06:00 14,8 C 14,2 C 11,0 C 94 % 1021,4 hPa 0,0 l/m 0,00 h 0,00 h 27 W/m 0,0 km/h (0 Bft) 98,20 %
20.05.2022 07:00 15,2 C 15,3 C 11,6 C 95 % 1020,8 hPa 0,0 l/m 0,13 h 0,00 h 86 W/m 2,9 km/h (1 Bft) 97,58 %
20.05.2022 08:00 17,3 C 20,1 C 13,9 C 89 % 1020,5 hPa 0,0 l/m 1,00 h 0,00 h 344 W/m 6,3 km/h (2 Bft) 97,29 %
20.05.2022 09:00 20,0 C 24,4 C 17,4 C 78 % 1020,0 hPa 0,0 l/m 1,00 h 0,00 h 483 W/m 8,5 km/h (2 Bft) 95,75 %
20.05.2022 10:00 21,4 C 23,6 C 19,0 C 76 % 1019,4 hPa 0,0 l/m 1,00 h 0,00 h 511 W/m 7,5 km/h (2 Bft) 99,14 %
20.05.2022 11:00 22,3 C 24,4 C 19,2 C 77 % 1018,5 hPa 0,0 l/m 0,90 h 0,00 h 545 W/m 7,7 km/h (2 Bft) 98,36 %
20.05.2022 12:00 24,1 C 26,2 C 24,3 C 76 % 1017,0 hPa 0,0 l/m 0,90 h 0,00 h 773 W/m 11,3 km/h (2 Bft) 96,26 %
20.05.2022 13:00 25,8 C 27,2 C 25,0 C 71 % 1015,2 hPa 0,0 l/m 0,97 h 0,00 h 768 W/m 12,6 km/h (3 Bft) 98,25 %
20.05.2022 14:00 24,7 C 23,4 C 19,4 C 76 % 1014,1 hPa 0,8 l/m 0,00 h 0,50 h 82 W/m 10,7 km/h (2 Bft) 98,23 %
20.05.2022 15:00 21,6 C 21,1 C 16,0 C 90 % 1013,9 hPa 0,8 l/m 0,47 h 0,37 h 285 W/m 17,0 km/h (3 Bft) 96,86 %
20.05.2022 16:00 21,9 C 21,3 C 15,7 C 87 % 1013,9 hPa 0,2 l/m 0,07 h 0,60 h 137 W/m 15,9 km/h (3 Bft) 98,36 %
20.05.2022 17:00 20,5 C 19,5 C 14,7 C 87 % 1013,8 hPa 0,6 l/m 0,00 h 0,30 h 58 W/m 21,8 km/h (4 Bft) 95,79 %
20.05.2022 18:00 19,1 C 18,8 C 14,0 C 92 % 1013,8 hPa 0,2 l/m 0,20 h 0,07 h 154 W/m 23,4 km/h (4 Bft) 97,42 %
20.05.2022 19:00 18,0 C 17,5 C 13,2 C 86 % 1015,4 hPa 0,0 l/m 0,10 h 0,00 h 85 W/m 25,1 km/h (4 Bft) 95,45 %
20.05.2022 20:00 15,8 C 15,3 C 12,3 C 87 % 1016,9 hPa 0,0 l/m 0,10 h 0,00 h 18 W/m 19,0 km/h (3 Bft) 96,80 %
20.05.2022 21:00 15,1 C 14,5 C 11,6 C 86 % 1017,8 hPa 0,0 l/m 0,00 h 0,00 h 3 W/m 15,3 km/h (3 Bft) 97,15 %
20.05.2022 22:00 14,3 C 13,8 C 11,0 C 85 % 1019,1 hPa 0,0 l/m 0,00 h 0,00 h 0 W/m 18,1 km/h (3 Bft) 97,65 %
20.05.2022 23:00 13,6 C 12,9 C 10,3 C 84 % 1019,8 hPa 0,0 l/m 0,00 h 0,00 h 0 W/m 13,0 km/h (3 Bft) 97,20 %
21.05.2022 00:00 13,0 C 12,3 C 9,5 C 87 % 1020,5 hPa 0,0 l/m 0,00 h 0,00 h 0 W/m 9,3 km/h (2 Bft) 93,56 %
21.05.2022 01:00 12,4 C 11,5 C 8,9 C 89 % 1020,6 hPa 0,0 l/m 0,00 h 0,00 h 0 W/m 4,7 km/h (1 Bft) 99,86 %
21.05.2022 02:00 12,0 C 11,2 C 8,9 C 90 % 1020,5 hPa 0,0 l/m 0,00 h 0,00 h 0 W/m 9,1 km/h (2 Bft) 95,67 %
21.05.2022 03:00 11,9 C 11,1 C 8,5 C 90 % 1020,4 hPa 0,0 l/m 0,00 h 0,00 h 0 W/m 10,2 km/h (2 Bft) 97,31 %
21.05.2022 04:00 11,8 C 11,4 C 8,5 C 90 % 1020,4 hPa 0,0 l/m 0,00 h 0,00 h 0 W/m 10,7 km/h (2 Bft) 99,07 %
21.05.2022 05:00 12,2 C 11,7 C 8,9 C 89 % 1020,6 hPa 0,0 l/m 0,00 h 0,00 h 0 W/m 12,3 km/h (3 Bft) 95,83 %
21.05.2022 06:00 12,2 C 11,7 C 8,9 C 89 % 1020,8 hPa 0,0 l/m 0,00 h 0,00 h 13 W/m 12,3 km/h (3 Bft) 97,65 %
21.05.2022 07:00 12,6 C 12,2 C 9,3 C 88 % 1021,2 hPa 0,0 l/m 0,00 h 0,00 h 68 W/m 11,2 km/h (2 Bft) 98,15 %
21.05.2022 08:00 12,9 C 12,6 C 9,5 C 88 % 1021,5 hPa 0,0 l/m 0,00 h 0,00 h 91 W/m 11,7 km/h (2 Bft) 96,30 %
21.05.2022 09:00 13,3 C 13,0 C 9,7 C 87 % 1021,9 hPa 0,0 l/m 0,00 h 0,00 h 104 W/m 13,2 km/h (3 Bft) 97,58 %
21.05.2022 10:00 14,3 C 14,7 C 11,3 C 84 % 1022,3 hPa 0,0 l/m 0,20 h 0,00 h 321 W/m 13,2 km/h (3 Bft) 99,86 %
21.05.2022 11:00 16,0 C 16,9 C 13,1 C 79 % 1022,4 hPa 0,0 l/m 0,47 h 0,00 h 450 W/m 14,2 km/h (3 Bft) 95,70 %
21.05.2022 12:00 17,7 C 19,5 C 18,5 C 73 % 1022,3 hPa 0,0 l/m 0,80 h 0,00 h 747 W/m 15,4 km/h (3 Bft) 96,81 %
21.05.2022 13:00 18,3 C 19,1 C 16,3 C 68 % 1022,2 hPa 0,0 l/m 0,47 h 0,00 h 541 W/m 13,4 km/h (3 Bft) 97,36 %
21.05.2022 14:00 18,7 C 19,0 C 15,5 C 66 % 1022,0 hPa 0,0 l/m 0,30 h 0,00 h 342 W/m 13,6 km/h (3 Bft) 98,58 %
21.05.2022 15:00 19,3 C 20,3 C 15,8 C 64 % 1021,8 hPa 0,0 l/m 0,60 h 0,00 h 482 W/m 13,0 km/h (3 Bft) 98,36 %
21.05.2022 16:00 19,7 C 20,5 C 16,2 C 62 % 1021,4 hPa 0,0 l/m 0,90 h 0,00 h 391 W/m 12,0 km/h (2 Bft) 95,38 %
21.05.2022 17:00 20,0 C 21,5 C 16,4 C 61 % 1021,0 hPa 0,0 l/m 0,73 h 0,00 h 385 W/m 10,3 km/h (2 Bft) 99,72 %
21.05.2022 18:00 19,7 C 19,9 C 15,8 C 62 % 1020,5 hPa 0,0 l/m 0,53 h 0,00 h 211 W/m 7,2 km/h (2 Bft) 96,85 %
21.05.2022 19:00 19,6 C 19,3 C 15,2 C 63 % 1020,1 hPa 0,0 l/m 0,37 h 0,00 h 120 W/m 4,8 km/h (1 Bft) 97,58 %
21.05.2022 20:00 19,0 C 18,2 C 14,3 C 66 % 1020,1 hPa 0,0 l/m 0,30 h 0,00 h 51 W/m 2,5 km/h (1 Bft) 98,08 %
21.05.2022 21:00 18,0 C 16,2 C 12,7 C 71 % 1020,1 hPa 0,0 l/m 0,00 h 0,00 h 11 W/m 1,3 km/h (1 Bft) 97,22 %
21.05.2022 22:00 16,3 C 14,3 C 10,9 C 77 % 1020,3 hPa 0,0 l/m 0,00 h 0,00 h 0 W/m 0,6 km/h (0 Bft) 97,08 %
21.05.2022 23:00 14,9 C 13,2 C 9,8 C 82 % 1020,2 hPa 0,0 l/m 0,00 h 0,00 h 0 W/m 0,0 km/h (0 Bft) 98,72 %
22.05.2022 00:00 13,7 C 12,3 C 9,2 C 85 % 1019,8 hPa 0,0 l/m 0,00 h 0,00 h 0 W/m 0,0 km/h (0 Bft) 92,99 %
22.05.2022 01:00 12,9 C 11,8 C 8,8 C 88 % 1019,6 hPa 0,0 l/m 0,00 h 0,00 h 0 W/m 0,0 km/h (0 Bft) 96,94 %
22.05.2022 02:00 12,5 C 11,7 C 8,4 C 90 % 1019,3 hPa 0,0 l/m 0,00 h 0,00 h 0 W/m 0,4 km/h (0 Bft) 97,87 %
22.05.2022 03:00 12,2 C 11,7 C 8,3 C 90 % 1019,0 hPa 0,0 l/m 0,00 h 0,00 h 0 W/m 0,5 km/h (0 Bft) 98,93 %
22.05.2022 04:00 12,0 C 11,2 C 8,0 C 91 % 1018,6 hPa 0,0 l/m 0,00 h 0,00 h 0 W/m 0,6 km/h (0 Bft) 95,98 %
22.05.2022 05:00 11,5 C 10,7 C 7,5 C 91 % 1018,1 hPa 0,0 l/m 0,00 h 0,00 h 8 W/m 0,3 km/h (0 Bft) 97,15 %
22.05.2022 06:00 11,3 C 10,9 C 7,7 C 92 % 1017,8 hPa 0,0 l/m 0,00 h 0,00 h 29 W/m 0,0 km/h (0 Bft) 98,30 %
22.05.2022 07:00 12,3 C 13,0 C 9,5 C 94 % 1017,8 hPa 0,0 l/m 0,17 h 0,00 h 130 W/m 1,8 km/h (1 Bft) 95,92 %
22.05.2022 08:00 14,8 C 17,5 C 12,1 C 87 % 1017,7 hPa 0,0 l/m 0,77 h 0,00 h 327 W/m 4,4 km/h (1 Bft) 97,29 %
22.05.2022 09:00 18,7 C 24,2 C 16,9 C 73 % 1017,7 hPa 0,0 l/m 1,00 h 0,00 h 541 W/m 5,7 km/h (1 Bft) 99,28 %
22.05.2022 10:00 19,6 C 21,5 C 17,6 C 66 % 1017,2 hPa 0,0 l/m 1,00 h 0,00 h 583 W/m 7,0 km/h (2 Bft) 97,65 %
22.05.2022 11:00 20,5 C 23,6 C 17,0 C 64 % 1016,5 hPa 0,0 l/m 1,00 h 0,00 h 786 W/m 7,6 km/h (2 Bft) 98,36 %
22.05.2022 12:00 22,2 C 24,7 C 22,8 C 59 % 1016,3 hPa 0,0 l/m 0,93 h 0,00 h 832 W/m 8,7 km/h (2 Bft) 96,49 %
22.05.2022 13:00 22,8 C 25,2 C 23,4 C 58 % 1015,5 hPa 0,0 l/m 0,90 h 0,00 h 863 W/m 10,0 km/h (2 Bft) 98,24 %
22.05.2022 14:00 23,8 C 27,3 C 19,2 C 55 % 1014,8 hPa 0,0 l/m 1,00 h 0,00 h 901 W/m 9,4 km/h (2 Bft) 98,59 %
22.05.2022 15:00 24,5 C 27,6 C 19,5 C 52 % 1013,9 hPa 0,0 l/m 1,00 h 0,00 h 831 W/m 8,4 km/h (2 Bft) 96,15 %
22.05.2022 16:00 24,9 C 30,3 C 20,5 C 51 % 1013,2 hPa 0,0 l/m 1,00 h 0,00 h 708 W/m 9,4 km/h (2 Bft) 98,24 %
22.05.2022 17:00 25,1 C 29,5 C 20,6 C 50 % 1012,8 hPa 0,0 l/m 1,00 h 0,00 h 533 W/m 7,7 km/h (2 Bft) 98,86 %
22.05.2022 18:00 25,0 C 28,5 C 20,6 C 49 % 1011,8 hPa 0,0 l/m 1,00 h 0,00 h 328 W/m 6,2 km/h (2 Bft) 96,06 %
22.05.2022 19:00 23,5 C 23,8 C 18,7 C 55 % 1011,2 hPa 0,0 l/m 0,57 h 0,00 h 146 W/m 5,7 km/h (1 Bft) 98,22 %
22.05.2022 20:00 21,4 C 20,4 C 16,7 C 65 % 1010,9 hPa 0,0 l/m 0,00 h 0,00 h 36 W/m 5,8 km/h (2 Bft) 97,73 %
22.05.2022 21:00 19,5 C 18,5 C 14,9 C 71 % 1010,5 hPa 0,0 l/m 0,00 h 0,00 h 11 W/m 5,4 km/h (1 Bft) 96,93 %
22.05.2022 22:00 18,1 C 17,1 C 13,7 C 77 % 1010,3 hPa 0,0 l/m 0,00 h 0,00 h 0 W/m 4,1 km/h (1 Bft) 98,88 %
22.05.2022 23:00 17,2 C 16,2 C 12,9 C 80 % 1009,9 hPa 0,0 l/m 0,00 h 0,00 h 0 W/m 3,1 km/h (1 Bft) 97,11 %
Min-Datum _ 22.05.22 22.05.22 22.05.22 18.05.22 22.05.22 - - - - 16.05.22 21.05.22
_ Min-Zeit 05:56 04:36 05:30 15:44 23:48 - - - - 00:00 00:02
Minimum _ 11,3 C 10,6 C 7,2 C 46 % 1009,7 hPa - - - - 0,0 km/h (0 Bft) 9,52 %
Max-Datum _ 18.05.22 18.05.22 18.05.22 20.05.22 21.05.22 19.05.22 16.05.22 19.05.22 21.05.22 20.05.22 16.05.22
_ Max-Zeit 17:10 17:05 13:42 07:10 11:10 15:10 15:55 15:05 13:56 18:07 00:00
Maximum _ 30,9 C 35,6 C 35,6 C 95 % 1022,5 hPa 9,8 l/m 0,08 h 0,08 h 1172 W/m 54,7 km/h
O-SO (7 Bft)
100,00 %
Durchschnitt _ 19,8 C 19,9 C 15,9 C 75 % 1018,5 hPa #12,4 l/m #51:27 h #2:29 h 311 W/m 7,9 km/h (2 Bft) 97,52 %
© 2022 W. Hausmann